Aviation Digital Data Service (ADDS)

Output produced by METARs form (0937 UTC 23 January 2019)
found at http://aviationweather.gov/metar/data/
 
KOEO 230935Z AUTO 00000KT 10SM -SN OVC033 M12/M13 A3000 RMK AO2 T11231135